sensor_id;sensor_type;location;lat;lon;timestamp;pressure;altitude;pressure_sealevel;temperature;humidity
52319;BME280;38258;51.148;14.068;2023-06-10T00:01:27;98129.91;;;14.67;100.00
52319;BME280;38258;51.148;14.068;2023-06-10T00:03:55;98136.13;;;14.47;100.00
52319;BME280;38258;51.148;14.068;2023-06-10T00:06:22;98141.69;;;14.41;100.00
52319;BME280;38258;51.148;14.068;2023-06-10T00:08:51;98143.19;;;14.47;100.00
52319;BME280;38258;51.148;14.068;2023-06-10T00:11:17;98147.22;;;14.54;100.00
52319;BME280;38258;51.148;14.068;2023-06-10T00:13:44;98143.06;;;14.67;100.00
52319;BME280;38258;51.148;14.068;2023-06-10T00:16:11;98136.59;;;14.75;100.00
52319;BME280;38258;51.148;14.068;2023-06-10T00:18:38;98151.53;;;14.74;100.00
52319;BME280;38258;51.148;14.068;2023-06-10T00:21:04;98151.63;;;14.73;100.00
52319;BME280;38258;51.148;14.068;2023-06-10T00:23:31;98149.56;;;14.60;100.00
52319;BME280;38258;51.148;14.068;2023-06-10T00:26:04;98160.81;;;14.64;100.00
52319;BME280;38258;51.148;14.068;2023-06-10T00:28:31;98170.06;;;14.73;100.00
52319;BME280;38258;51.148;14.068;2023-06-10T00:30:58;98160.47;;;14.72;100.00
52319;BME280;38258;51.148;14.068;2023-06-10T00:33:25;98172.69;;;14.73;100.00
52319;BME280;38258;51.148;14.068;2023-06-10T00:35:51;98170.63;;;14.60;100.00
52319;BME280;38258;51.148;14.068;2023-06-10T00:38:18;98183.47;;;14.66;100.00
52319;BME280;38258;51.148;14.068;2023-06-10T00:40:45;98185.94;;;14.69;100.00
52319;BME280;38258;51.148;14.068;2023-06-10T00:43:13;98188.50;;;14.71;100.00
52319;BME280;38258;51.148;14.068;2023-06-10T00:45:40;98192.03;;;14.72;100.00
52319;BME280;38258;51.148;14.068;2023-06-10T00:48:06;98196.84;;;14.62;100.00
52319;BME280;38258;51.148;14.068;2023-06-10T00:50:33;98200.88;;;14.51;100.00
52319;BME280;38258;51.148;14.068;2023-06-10T00:53:05;98198.91;;;14.55;100.00
52319;BME280;38258;51.148;14.068;2023-06-10T00:55:32;98195.59;;;14.51;100.00
52319;BME280;38258;51.148;14.068;2023-06-10T00:57:59;98197.31;;;14.52;100.00
52319;BME280;38258;51.148;14.068;2023-06-10T01:00:27;98207.53;;;14.59;100.00
52319;BME280;38258;51.148;14.068;2023-06-10T01:02:54;98203.19;;;14.57;100.00
52319;BME280;38258;51.148;14.068;2023-06-10T01:05:21;98199.41;;;14.63;100.00
52319;BME280;38258;51.148;14.068;2023-06-10T01:07:57;98197.41;;;14.68;100.00
52319;BME280;38258;51.148;14.068;2023-06-10T01:10:29;98201.84;;;14.68;100.00
52319;BME280;38258;51.148;14.068;2023-06-10T01:13:00;98194.78;;;14.68;100.00
52319;BME280;38258;51.148;14.068;2023-06-10T01:15:31;98201.75;;;14.69;100.00
52319;BME280;38258;51.148;14.068;2023-06-10T01:17:59;98199.97;;;14.70;100.00
52319;BME280;38258;51.148;14.068;2023-06-10T01:20:30;98202.81;;;14.65;100.00
52319;BME280;38258;51.148;14.068;2023-06-10T01:23:00;98200.41;;;14.61;100.00
52319;BME280;38258;51.148;14.068;2023-06-10T01:25:29;98200.28;;;14.64;100.00
52319;BME280;38258;51.148;14.068;2023-06-10T01:28:02;98197.88;;;14.59;100.00
52319;BME280;38258;51.148;14.068;2023-06-10T01:30:34;98201.00;;;14.48;100.00
52319;BME280;38258;51.148;14.068;2023-06-10T01:33:05;98204.22;;;14.36;100.00
52319;BME280;38258;51.148;14.068;2023-06-10T01:35:33;98201.81;;;14.31;100.00
52319;BME280;38258;51.148;14.068;2023-06-10T01:38:04;98206.03;;;14.34;100.00
52319;BME280;38258;51.148;14.068;2023-06-10T01:40:32;98201.72;;;14.33;100.00
52319;BME280;38258;51.148;14.068;2023-06-10T01:43:00;98205.34;;;14.30;100.00
52319;BME280;38258;51.148;14.068;2023-06-10T01:45:27;98209.75;;;14.30;100.00
52319;BME280;38258;51.148;14.068;2023-06-10T01:47:53;98217.16;;;14.21;100.00
52319;BME280;38258;51.148;14.068;2023-06-10T01:50:20;98210.53;;;14.12;100.00
52319;BME280;38258;51.148;14.068;2023-06-10T01:52:47;98212.56;;;14.06;100.00
52319;BME280;38258;51.148;14.068;2023-06-10T01:55:15;98212.88;;;13.99;100.00
52319;BME280;38258;51.148;14.068;2023-06-10T01:57:41;98220.13;;;13.94;100.00
52319;BME280;38258;51.148;14.068;2023-06-10T02:00:09;98224.81;;;13.88;100.00
52319;BME280;38258;51.148;14.068;2023-06-10T02:02:44;98224.06;;;13.84;100.00
52319;BME280;38258;51.148;14.068;2023-06-10T02:05:10;98222.75;;;13.74;100.00
52319;BME280;38258;51.148;14.068;2023-06-10T02:07:37;98226.41;;;13.71;100.00
52319;BME280;38258;51.148;14.068;2023-06-10T02:10:05;98227.56;;;13.64;100.00
52319;BME280;38258;51.148;14.068;2023-06-10T02:12:34;98226.16;;;13.56;100.00
52319;BME280;38258;51.148;14.068;2023-06-10T02:15:00;98230.69;;;13.53;100.00
52319;BME280;38258;51.148;14.068;2023-06-10T02:17:27;98229.16;;;13.47;100.00
52319;BME280;38258;51.148;14.068;2023-06-10T02:19:54;98232.91;;;13.40;100.00
52319;BME280;38258;51.148;14.068;2023-06-10T02:22:22;98242.66;;;13.38;100.00
52319;BME280;38258;51.148;14.068;2023-06-10T02:24:49;98236.75;;;13.33;100.00
52319;BME280;38258;51.148;14.068;2023-06-10T02:27:16;98232.28;;;13.35;100.00
52319;BME280;38258;51.148;14.068;2023-06-10T02:29:44;98238.50;;;13.32;100.00
52319;BME280;38258;51.148;14.068;2023-06-10T02:32:11;98235.22;;;13.27;100.00
52319;BME280;38258;51.148;14.068;2023-06-10T02:34:40;98233.66;;;13.23;100.00
52319;BME280;38258;51.148;14.068;2023-06-10T02:37:08;98232.13;;;13.17;100.00
52319;BME280;38258;51.148;14.068;2023-06-10T02:39:35;98235.88;;;13.11;100.00
52319;BME280;38258;51.148;14.068;2023-06-10T02:42:06;98235.50;;;13.21;100.00
52319;BME280;38258;51.148;14.068;2023-06-10T02:44:33;98225.31;;;13.13;100.00
52319;BME280;38258;51.148;14.068;2023-06-10T02:47:01;98228.72;;;13.15;100.00
52319;BME280;38258;51.148;14.068;2023-06-10T02:49:29;98233.91;;;13.17;100.00
52319;BME280;38258;51.148;14.068;2023-06-10T02:51:56;98232.13;;;13.17;100.00
52319;BME280;38258;51.148;14.068;2023-06-10T02:54:23;98239.28;;;13.13;100.00
52319;BME280;38258;51.148;14.068;2023-06-10T02:56:52;98229.97;;;13.06;100.00
52319;BME280;38258;51.148;14.068;2023-06-10T02:59:23;98235.91;;;13.10;100.00
52319;BME280;38258;51.148;14.068;2023-06-10T03:01:50;98234.22;;;13.09;100.00
52319;BME280;38258;51.148;14.068;2023-06-10T03:04:18;98236.84;;;13.09;100.00
52319;BME280;38258;51.148;14.068;2023-06-10T03:06:54;98235.13;;;13.08;100.00
52319;BME280;38258;51.148;14.068;2023-06-10T03:09:26;98235.22;;;13.06;100.00
52319;BME280;38258;51.148;14.068;2023-06-10T03:11:56;98236.91;;;13.07;100.00
52319;BME280;38258;51.148;14.068;2023-06-10T03:14:24;98240.19;;;13.12;100.00
52319;BME280;38258;51.148;14.068;2023-06-10T03:16:52;98230.47;;;13.14;100.00
52319;BME280;38258;51.148;14.068;2023-06-10T03:19:21;98228.72;;;13.15;100.00
52319;BME280;38258;51.148;14.068;2023-06-10T03:21:57;98239.31;;;13.12;100.00
52319;BME280;38258;51.148;14.068;2023-06-10T03:24:24;98244.59;;;13.12;100.00
52319;BME280;38258;51.148;14.068;2023-06-10T03:26:51;98236.69;;;13.12;100.00
52319;BME280;38258;51.148;14.068;2023-06-10T03:29:18;98240.25;;;13.11;100.00
52319;BME280;38258;51.148;14.068;2023-06-10T03:31:45;98238.34;;;13.14;100.00
52319;BME280;38258;51.148;14.068;2023-06-10T03:34:12;98237.91;;;13.25;100.00
52319;BME280;38258;51.148;14.068;2023-06-10T03:36:40;98240.53;;;13.25;100.00
52319;BME280;38258;51.148;14.068;2023-06-10T03:39:09;98242.97;;;13.30;100.00
52319;BME280;38258;51.148;14.068;2023-06-10T03:41:36;98242.00;;;13.33;100.00
52319;BME280;38258;51.148;14.068;2023-06-10T03:44:03;98252.50;;;13.33;100.00
52319;BME280;38258;51.148;14.068;2023-06-10T03:46:30;98244.63;;;13.33;100.00
52319;BME280;38258;51.148;14.068;2023-06-10T03:48:57;98249.59;;;13.39;100.00
52319;BME280;38258;51.148;14.068;2023-06-10T03:51:26;98246.97;;;13.39;100.00
52319;BME280;38258;51.148;14.068;2023-06-10T03:53:54;98246.88;;;13.42;100.00
52319;BME280;38258;51.148;14.068;2023-06-10T03:56:21;98250.78;;;13.54;100.00
52319;BME280;38258;51.148;14.068;2023-06-10T03:58:48;98248.94;;;13.56;100.00
52319;BME280;38258;51.148;14.068;2023-06-10T04:01:15;98253.91;;;13.62;100.00
52319;BME280;38258;51.148;14.068;2023-06-10T04:03:43;98250.25;;;13.66;100.00
52319;BME280;38258;51.148;14.068;2023-06-10T04:06:10;98254.59;;;13.67;100.00
52319;BME280;38258;51.148;14.068;2023-06-10T04:08:37;98258.59;;;13.76;100.00
52319;BME280;38258;51.148;14.068;2023-06-10T04:11:05;98265.81;;;13.92;100.00
52319;BME280;38258;51.148;14.068;2023-06-10T04:13:34;98267.88;;;14.04;100.00
52319;BME280;38258;51.148;14.068;2023-06-10T04:16:02;98270.19;;;14.12;100.00
52319;BME280;38258;51.148;14.068;2023-06-10T04:18:28;98267.34;;;14.17;100.00
52319;BME280;38258;51.148;14.068;2023-06-10T04:20:59;98270.59;;;14.22;100.00
52319;BME280;38258;51.148;14.068;2023-06-10T04:23:27;98263.03;;;14.35;100.00
52319;BME280;38258;51.148;14.068;2023-06-10T04:25:53;98265.31;;;14.42;100.00
52319;BME280;38258;51.148;14.068;2023-06-10T04:28:21;98264.72;;;14.55;100.00
52319;BME280;38258;51.148;14.068;2023-06-10T04:30:48;98258.97;;;14.66;100.00
52319;BME280;38258;51.148;14.068;2023-06-10T04:33:15;98255.91;;;14.75;100.00
52319;BME280;38258;51.148;14.068;2023-06-10T04:35:42;98256.34;;;14.85;100.00
52319;BME280;38258;51.148;14.068;2023-06-10T04:38:12;98258.66;;;14.91;100.00
52319;BME280;38258;51.148;14.068;2023-06-10T04:40:39;98260.50;;;15.08;100.00
52319;BME280;38258;51.148;14.068;2023-06-10T04:43:07;98260.34;;;15.29;100.00
52319;BME280;38258;51.148;14.068;2023-06-10T04:45:35;98262.59;;;15.37;100.00
52319;BME280;38258;51.148;14.068;2023-06-10T04:48:02;98260.59;;;15.60;100.00
52319;BME280;38258;51.148;14.068;2023-06-10T04:50:28;98261.28;;;15.81;100.00
52319;BME280;38258;51.148;14.068;2023-06-10T04:52:55;98263.31;;;15.93;100.00
52319;BME280;38258;51.148;14.068;2023-06-10T04:55:23;98266.06;;;16.08;100.00
52319;BME280;38258;51.148;14.068;2023-06-10T04:57:50;98268.91;;;16.21;100.00
52319;BME280;38258;51.148;14.068;2023-06-10T05:00:17;98276.44;;;16.45;100.00
52319;BME280;38258;51.148;14.068;2023-06-10T05:02:45;98277.19;;;16.63;100.00
52319;BME280;38258;51.148;14.068;2023-06-10T05:05:15;98274.06;;;16.88;100.00
52319;BME280;38258;51.148;14.068;2023-06-10T05:07:41;98277.31;;;17.09;100.00
52319;BME280;38258;51.148;14.068;2023-06-10T05:10:09;98279.34;;;17.20;100.00
52319;BME280;38258;51.148;14.068;2023-06-10T05:12:37;98268.91;;;17.33;100.00
52319;BME280;38258;51.148;14.068;2023-06-10T05:15:05;98278.06;;;17.42;100.00
52319;BME280;38258;51.148;14.068;2023-06-10T05:17:32;98270.28;;;17.55;100.00
52319;BME280;38258;51.148;14.068;2023-06-10T05:20:01;98277.59;;;17.66;100.00
52319;BME280;38258;51.148;14.068;2023-06-10T05:22:28;98284.88;;;17.77;100.00
52319;BME280;38258;51.148;14.068;2023-06-10T05:24:55;98283.69;;;17.97;100.00
52319;BME280;38258;51.148;14.068;2023-06-10T05:27:22;98283.91;;;18.08;100.00
52319;BME280;38258;51.148;14.068;2023-06-10T05:29:49;98290.34;;;18.04;100.00
52319;BME280;38258;51.148;14.068;2023-06-10T05:32:17;98284.44;;;17.99;100.00
52319;BME280;38258;51.148;14.068;2023-06-10T05:34:43;98287.31;;;18.25;100.00
52319;BME280;38258;51.148;14.068;2023-06-10T05:37:12;98291.03;;;18.37;100.00
52319;BME280;38258;51.148;14.068;2023-06-10T05:39:38;98291.28;;;18.47;100.00
52319;BME280;38258;51.148;14.068;2023-06-10T05:42:06;98289.28;;;18.50;100.00
52319;BME280;38258;51.148;14.068;2023-06-10T05:44:33;98296.25;;;18.81;100.00
52319;BME280;38258;51.148;14.068;2023-06-10T05:47:02;98288.97;;;18.70;100.00
52319;BME280;38258;51.148;14.068;2023-06-10T05:49:28;98294.97;;;18.59;100.00
52319;BME280;38258;51.148;14.068;2023-06-10T05:51:55;98290.56;;;18.87;100.00
52319;BME280;38258;51.148;14.068;2023-06-10T05:54:25;98296.34;;;18.79;100.00
52319;BME280;38258;51.148;14.068;2023-06-10T05:56:51;98301.53;;;18.95;100.00
52319;BME280;38258;51.148;14.068;2023-06-10T05:59:18;98300.66;;;18.94;100.00
52319;BME280;38258;51.148;14.068;2023-06-10T06:01:44;98292.91;;;19.06;100.00
52319;BME280;38258;51.148;14.068;2023-06-10T06:04:11;98295.84;;;19.01;100.00
52319;BME280;38258;51.148;14.068;2023-06-10T06:06:38;98297.28;;;19.20;100.00
52319;BME280;38258;51.148;14.068;2023-06-10T06:09:05;98295.34;;;19.36;100.00
52319;BME280;38258;51.148;14.068;2023-06-10T06:11:33;98299.19;;;19.18;100.00
52319;BME280;38258;51.148;14.068;2023-06-10T06:14:00;98298.53;;;19.42;100.00
52319;BME280;38258;51.148;14.068;2023-06-10T06:16:27;98299.66;;;19.65;100.00
52319;BME280;38258;51.148;14.068;2023-06-10T06:18:53;98300.91;;;19.59;100.00
52319;BME280;38258;51.148;14.068;2023-06-10T06:21:20;98303.19;;;19.91;100.00
52319;BME280;38258;51.148;14.068;2023-06-10T06:23:47;98307.53;;;19.80;100.00
52319;BME280;38258;51.148;14.068;2023-06-10T06:26:13;98308.41;;;19.80;100.00
52319;BME280;38258;51.148;14.068;2023-06-10T06:28:41;98304.72;;;20.09;100.00
52319;BME280;38258;51.148;14.068;2023-06-10T06:31:08;98311.09;;;20.19;100.00
52319;BME280;38258;51.148;14.068;2023-06-10T06:33:34;98315.44;;;20.33;100.00
52319;BME280;38258;51.148;14.068;2023-06-10T06:36:01;98321.91;;;20.55;100.00
52319;BME280;38258;51.148;14.068;2023-06-10T06:38:27;98318.94;;;20.59;100.00
52319;BME280;38258;51.148;14.068;2023-06-10T06:40:54;98314.78;;;20.68;100.00
52319;BME280;38258;51.148;14.068;2023-06-10T06:43:20;98323.25;;;20.86;100.00
52319;BME280;38258;51.148;14.068;2023-06-10T06:45:56;98323.13;;;20.88;100.00
52319;BME280;38258;51.148;14.068;2023-06-10T06:48:22;98329.31;;;20.75;100.00
52319;BME280;38258;51.148;14.068;2023-06-10T06:50:49;98325.75;;;20.12;100.00
52319;BME280;38258;51.148;14.068;2023-06-10T06:53:15;98330.75;;;20.42;100.00
52319;BME280;38258;51.148;14.068;2023-06-10T06:55:42;98336.44;;;20.88;100.00
52319;BME280;38258;51.148;14.068;2023-06-10T06:58:08;98343.78;;;21.46;100.00
52319;BME280;38258;51.148;14.068;2023-06-10T07:00:35;98345.78;;;21.31;100.00
52319;BME280;38258;51.148;14.068;2023-06-10T07:03:03;98344.75;;;21.21;100.00
52319;BME280;38258;51.148;14.068;2023-06-10T07:05:29;98352.00;;;21.67;100.00
52319;BME280;38258;51.148;14.068;2023-06-10T07:07:56;98348.13;;;21.71;100.00
52319;BME280;38258;51.148;14.068;2023-06-10T07:10:23;98358.97;;;20.56;100.00
52319;BME280;38258;51.148;14.068;2023-06-10T07:12:50;98358.31;;;20.79;100.00
52319;BME280;38258;51.148;14.068;2023-06-10T07:15:17;98356.94;;;20.73;100.00
52319;BME280;38258;51.148;14.068;2023-06-10T07:17:44;98365.13;;;20.96;100.00
52319;BME280;38258;51.148;14.068;2023-06-10T07:20:12;98362.53;;;21.07;100.00
52319;BME280;38258;51.148;14.068;2023-06-10T07:22:40;98360.84;;;21.55;100.00
52319;BME280;38258;51.148;14.068;2023-06-10T07:25:07;98372.88;;;21.36;100.00
52319;BME280;38258;51.148;14.068;2023-06-10T07:27:34;98374.81;;;21.21;100.00
52319;BME280;38258;51.148;14.068;2023-06-10T07:30:01;98368.56;;;20.46;100.00
52319;BME280;38258;51.148;14.068;2023-06-10T07:32:27;98371.41;;;20.69;100.00
52319;BME280;38258;51.148;14.068;2023-06-10T07:34:54;98373.94;;;21.33;100.00
52319;BME280;38258;51.148;14.068;2023-06-10T07:37:22;98380.84;;;21.36;100.00
52319;BME280;38258;51.148;14.068;2023-06-10T07:39:49;98374.41;;;21.76;100.00
52319;BME280;38258;51.148;14.068;2023-06-10T07:42:15;98382.38;;;21.52;100.00
52319;BME280;38258;51.148;14.068;2023-06-10T07:44:42;98378.97;;;21.98;100.00
52319;BME280;38258;51.148;14.068;2023-06-10T07:47:08;98379.94;;;23.01;100.00
52319;BME280;38258;51.148;14.068;2023-06-10T07:49:35;98377.41;;;22.66;100.00
52319;BME280;38258;51.148;14.068;2023-06-10T07:52:01;98380.81;;;22.09;100.00
52319;BME280;38258;51.148;14.068;2023-06-10T07:54:29;98381.03;;;22.87;99.09
52319;BME280;38258;51.148;14.068;2023-06-10T07:56:56;98383.94;;;22.73;98.00
52319;BME280;38258;51.148;14.068;2023-06-10T07:59:22;98379.84;;;23.58;99.32
52319;BME280;38258;51.148;14.068;2023-06-10T08:01:51;98383.28;;;23.38;100.00
52319;BME280;38258;51.148;14.068;2023-06-10T08:04:17;98388.75;;;22.45;99.57
52319;BME280;38258;51.148;14.068;2023-06-10T08:06:44;98395.84;;;22.10;100.00
52319;BME280;38258;51.148;14.068;2023-06-10T08:09:10;98383.72;;;22.53;100.00
52319;BME280;38258;51.148;14.068;2023-06-10T08:11:38;98383.97;;;23.51;98.73
52319;BME280;38258;51.148;14.068;2023-06-10T08:14:05;98394.72;;;23.06;100.00
52319;BME280;38258;51.148;14.068;2023-06-10T08:16:32;98386.47;;;23.20;96.94
52319;BME280;38258;51.148;14.068;2023-06-10T08:18:59;98381.97;;;22.41;94.02
52319;BME280;38258;51.148;14.068;2023-06-10T08:21:25;98386.38;;;23.87;96.39
52319;BME280;38258;51.148;14.068;2023-06-10T08:23:53;98383.53;;;24.33;89.26
52319;BME280;38258;51.148;14.068;2023-06-10T08:26:20;98384.19;;;24.25;92.11
52319;BME280;38258;51.148;14.068;2023-06-10T08:28:48;98391.94;;;23.95;86.75
52319;BME280;38258;51.148;14.068;2023-06-10T08:31:15;98386.53;;;24.70;85.59
52319;BME280;38258;51.148;14.068;2023-06-10T08:33:42;98386.09;;;24.44;81.27
52319;BME280;38258;51.148;14.068;2023-06-10T08:36:08;98397.44;;;25.20;79.35
52319;BME280;38258;51.148;14.068;2023-06-10T08:38:35;98384.28;;;24.76;79.74
52319;BME280;38258;51.148;14.068;2023-06-10T08:41:04;98395.03;;;23.79;83.94
52319;BME280;38258;51.148;14.068;2023-06-10T08:43:34;98395.59;;;23.94;89.98
52319;BME280;38258;51.148;14.068;2023-06-10T08:46:03;98392.00;;;23.84;88.92
52319;BME280;38258;51.148;14.068;2023-06-10T08:48:30;98392.06;;;24.26;87.95
52319;BME280;38258;51.148;14.068;2023-06-10T08:50:59;98384.69;;;24.71;87.66
52319;BME280;38258;51.148;14.068;2023-06-10T08:53:26;98387.47;;;24.17;82.35
52319;BME280;38258;51.148;14.068;2023-06-10T08:55:54;98386.88;;;24.56;85.31
52319;BME280;38258;51.148;14.068;2023-06-10T08:58:25;98388.31;;;23.64;88.26
52319;BME280;38258;51.148;14.068;2023-06-10T09:00:52;98386.16;;;23.90;87.22
52319;BME280;38258;51.148;14.068;2023-06-10T09:03:20;98381.97;;;23.76;94.00
52319;BME280;38258;51.148;14.068;2023-06-10T09:05:48;98387.97;;;23.57;96.37
52319;BME280;38258;51.148;14.068;2023-06-10T09:08:15;98386.97;;;24.23;97.12
52319;BME280;38258;51.148;14.068;2023-06-10T09:10:44;98391.78;;;24.08;92.06
52319;BME280;38258;51.148;14.068;2023-06-10T09:13:10;98386.72;;;24.05;80.20
52319;BME280;38258;51.148;14.068;2023-06-10T09:15:41;98385.69;;;25.52;71.55
52319;BME280;38258;51.148;14.068;2023-06-10T09:18:07;98384.53;;;26.04;68.13
52319;BME280;38258;51.148;14.068;2023-06-10T09:20:36;98389.22;;;25.72;67.84
52319;BME280;38258;51.148;14.068;2023-06-10T09:23:02;98387.78;;;26.07;75.95
52319;BME280;38258;51.148;14.068;2023-06-10T09:25:36;98384.56;;;26.14;68.87
52319;BME280;38258;51.148;14.068;2023-06-10T09:28:04;98394.50;;;25.42;71.76
52319;BME280;38258;51.148;14.068;2023-06-10T09:30:32;98386.34;;;26.43;67.02
52319;BME280;38258;51.148;14.068;2023-06-10T09:33:00;98387.28;;;28.89;59.64
52319;BME280;38258;51.148;14.068;2023-06-10T09:35:29;98396.16;;;28.10;55.06
52319;BME280;38258;51.148;14.068;2023-06-10T09:37:59;98398.00;;;26.61;60.85
52319;BME280;38258;51.148;14.068;2023-06-10T09:40:27;98397.34;;;27.71;63.00
52319;BME280;38258;51.148;14.068;2023-06-10T09:42:55;98400.53;;;27.75;61.82
52319;BME280;38258;51.148;14.068;2023-06-10T09:45:22;98410.22;;;25.96;69.05
52319;BME280;38258;51.148;14.068;2023-06-10T09:47:52;98412.06;;;25.57;76.43
52319;BME280;38258;51.148;14.068;2023-06-10T09:50:19;98408.28;;;24.77;77.36
52319;BME280;38258;51.148;14.068;2023-06-10T09:52:46;98404.28;;;26.03;68.65
52319;BME280;38258;51.148;14.068;2023-06-10T09:55:14;98406.28;;;26.01;63.81
52319;BME280;38258;51.148;14.068;2023-06-10T09:57:41;98402.94;;;28.93;57.20
52319;BME280;38258;51.148;14.068;2023-06-10T10:00:11;98403.00;;;29.10;58.48
52319;BME280;38258;51.148;14.068;2023-06-10T10:02:44;98400.47;;;28.21;61.13
52319;BME280;38258;51.148;14.068;2023-06-10T10:05:12;98403.06;;;27.58;64.17
52319;BME280;38258;51.148;14.068;2023-06-10T10:07:39;98408.13;;;28.16;59.59
52319;BME280;38258;51.148;14.068;2023-06-10T10:10:08;98409.91;;;27.71;61.65
52319;BME280;38258;51.148;14.068;2023-06-10T10:12:38;98397.94;;;28.72;54.12
52319;BME280;38258;51.148;14.068;2023-06-10T10:15:06;98400.22;;;28.14;60.60
52319;BME280;38258;51.148;14.068;2023-06-10T10:17:34;98397.66;;;29.18;55.05
52319;BME280;38258;51.148;14.068;2023-06-10T10:20:03;98392.56;;;28.99;55.92
52319;BME280;38258;51.148;14.068;2023-06-10T10:22:34;98399.09;;;27.16;55.04
52319;BME280;38258;51.148;14.068;2023-06-10T10:25:02;98391.88;;;27.99;55.60
52319;BME280;38258;51.148;14.068;2023-06-10T10:27:35;98396.88;;;27.76;55.21
52319;BME280;38258;51.148;14.068;2023-06-10T10:30:05;98401.22;;;25.78;55.62
52319;BME280;38258;51.148;14.068;2023-06-10T10:32:38;98390.06;;;25.73;55.67
52319;BME280;38258;51.148;14.068;2023-06-10T10:35:12;98382.13;;;26.78;54.08
52319;BME280;38258;51.148;14.068;2023-06-10T10:37:39;98388.00;;;28.38;49.77
52319;BME280;38258;51.148;14.068;2023-06-10T10:40:07;98392.38;;;29.00;51.02
52319;BME280;38258;51.148;14.068;2023-06-10T10:42:35;98389.84;;;28.72;53.14
52319;BME280;38258;51.148;14.068;2023-06-10T10:45:05;98392.94;;;28.77;49.23
52319;BME280;38258;51.148;14.068;2023-06-10T10:47:33;98396.34;;;28.88;49.55
52319;BME280;38258;51.148;14.068;2023-06-10T10:50:01;98386.75;;;27.70;51.28
52319;BME280;38258;51.148;14.068;2023-06-10T10:52:48;98397.53;;;28.32;51.47
52319;BME280;38258;51.148;14.068;2023-06-10T10:55:17;98384.31;;;29.00;48.50
52319;BME280;38258;51.148;14.068;2023-06-10T10:57:43;98379.53;;;29.29;48.71
52319;BME280;38258;51.148;14.068;2023-06-10T11:00:12;98386.63;;;26.39;51.68
52319;BME280;38258;51.148;14.068;2023-06-10T11:02:50;98380.28;;;26.88;50.83
52319;BME280;38258;51.148;14.068;2023-06-10T11:05:31;98388.97;;;28.90;50.89
52319;BME280;38258;51.148;14.068;2023-06-10T11:07:57;98382.22;;;28.33;47.74
52319;BME280;38258;51.148;14.068;2023-06-10T11:10:29;98379.09;;;29.07;47.61
52319;BME280;38258;51.148;14.068;2023-06-10T11:12:57;98374.41;;;30.18;49.60
52319;BME280;38258;51.148;14.068;2023-06-10T11:15:26;98377.44;;;29.66;45.16
52319;BME280;38258;51.148;14.068;2023-06-10T11:18:15;98379.84;;;30.10;46.05
52319;BME280;38258;51.148;14.068;2023-06-10T11:20:46;98376.59;;;28.71;47.98
52319;BME280;38258;51.148;14.068;2023-06-10T11:23:33;98375.56;;;28.72;46.53
52319;BME280;38258;51.148;14.068;2023-06-10T11:26:18;98369.44;;;29.31;46.70
52319;BME280;38258;51.148;14.068;2023-06-10T11:29:08;98371.50;;;26.96;49.16
52319;BME280;38258;51.148;14.068;2023-06-10T11:31:42;98362.06;;;27.38;50.82
52319;BME280;38258;51.148;14.068;2023-06-10T11:34:09;98370.34;;;27.27;54.03
52319;BME280;38258;51.148;14.068;2023-06-10T11:36:37;98378.81;;;25.08;56.84
52319;BME280;38258;51.148;14.068;2023-06-10T11:39:08;98371.56;;;25.40;61.38
52319;BME280;38258;51.148;14.068;2023-06-10T11:41:37;98370.69;;;24.57;62.20
52319;BME280;38258;51.148;14.068;2023-06-10T11:44:07;98371.81;;;25.37;63.46
52319;BME280;38258;51.148;14.068;2023-06-10T11:46:34;98362.09;;;26.72;61.25
52319;BME280;38258;51.148;14.068;2023-06-10T11:49:03;98353.63;;;27.51;53.09
52319;BME280;38258;51.148;14.068;2023-06-10T11:51:33;98358.06;;;25.81;55.58
52319;BME280;38258;51.148;14.068;2023-06-10T11:54:00;98352.50;;;28.16;54.62
52319;BME280;38258;51.148;14.068;2023-06-10T11:56:28;98346.19;;;30.71;48.79
52319;BME280;38258;51.148;14.068;2023-06-10T11:58:56;98355.03;;;29.82;44.30
52319;BME280;38258;51.148;14.068;2023-06-10T12:01:24;98348.81;;;29.05;44.69
52319;BME280;38258;51.148;14.068;2023-06-10T12:03:58;98352.06;;;29.33;46.38
52319;BME280;38258;51.148;14.068;2023-06-10T12:06:27;98349.38;;;29.33;48.17
52319;BME280;38258;51.148;14.068;2023-06-10T12:08:54;98351.13;;;29.43;48.45
52319;BME280;38258;51.148;14.068;2023-06-10T12:11:21;98357.03;;;29.55;46.71
52319;BME280;38258;51.148;14.068;2023-06-10T12:13:49;98349.91;;;29.29;47.97
52319;BME280;38258;51.148;14.068;2023-06-10T12:16:16;98350.38;;;28.46;48.74
52319;BME280;38258;51.148;14.068;2023-06-10T12:18:46;98342.53;;;28.08;48.33
52319;BME280;38258;51.148;14.068;2023-06-10T12:21:23;98345.72;;;28.57;48.43
52319;BME280;38258;51.148;14.068;2023-06-10T12:24:01;98342.38;;;27.01;51.10
52319;BME280;38258;51.148;14.068;2023-06-10T12:26:53;98340.81;;;29.30;47.92
52319;BME280;38258;51.148;14.068;2023-06-10T12:29:22;98340.19;;;29.69;45.80
52319;BME280;38258;51.148;14.068;2023-06-10T12:31:57;98334.25;;;30.40;45.55
52319;BME280;38258;51.148;14.068;2023-06-10T12:34:31;98328.94;;;30.07;42.95
52319;BME280;38258;51.148;14.068;2023-06-10T12:36:58;98342.91;;;30.19;43.16
52319;BME280;38258;51.148;14.068;2023-06-10T12:39:26;98341.34;;;30.50;44.25
52319;BME280;38258;51.148;14.068;2023-06-10T12:41:53;98337.72;;;31.06;41.99
52319;BME280;38258;51.148;14.068;2023-06-10T12:44:28;98328.50;;;30.43;41.73
52319;BME280;38258;51.148;14.068;2023-06-10T12:46:55;98339.66;;;30.40;42.50
52319;BME280;38258;51.148;14.068;2023-06-10T12:49:22;98335.88;;;29.17;44.81